Tenjinmaru No11 — JD3353 — position and weather

sailwx.info

Track history (hours):
 
Tides and Currents Weather Stations Pressure Air Temp Water Temp Dewpoint Dewpoint Depression Visibility Wind Speed Wind Dir Waves Ship Positions

Tenjinmaru No11

Last reported at 2016-Aug-24 16:16 UTC. Time now 2016-Aug-29 00:13 UTC.
Position N 34°37' E 134°57'.

Length 75 m; draft 4.8 m.

Type: Cargo ship. MMSI: 431003485.

Date/timePositionNaut miles runAvg speedWind from/ knotsBaromVisibWave heightAir tempDewpointWater temp
2016-Aug-24 16:16N 34°37' E 134°57'912.5
2016-Aug-24 15:33N 34°35' E 135°08'1211.7
2016-Aug-24 14:33N 34°37' E 135°22'4 0.8
2016-Aug-24 09:16N 34°38' E 135°27'0 0.0
2016-Aug-24 08:28N 34°38' E 135°27'0 0.0
2016-Aug-24 07:28N 34°38' E 135°27'0 0.0
2016-Aug-24 06:16N 34°38' E 135°27'0 0.0
2016-Aug-24 04:29N 34°38' E 135°27'2 0.3
2016-Aug-23 23:33N 34°39' E 135°28'1 1.5
2016-Aug-23 22:33N 34°39' E 135°26'3 3.1
2016-Aug-23 21:28N 34°37' E 135°22'0 0.0
2016-Aug-23 20:34N 34°37' E 135°22'0 0.0
2016-Aug-23 19:28N 34°37' E 135°22'0 0.0
2016-Aug-23 18:28N 34°37' E 135°22'0 0.0
2016-Aug-23 17:34N 34°37' E 135°22'0 0.0
2016-Aug-23 16:34N 34°37' E 135°22'0 0.0
2016-Aug-23 15:34N 34°37' E 135°22'0 0.0
2016-Aug-23 14:21N 34°37' E 135°22'0 0.0
2016-Aug-23 13:21N 34°37' E 135°22'0 0.0
2016-Aug-23 12:34N 34°37' E 135°22'0 0.0
2016-Aug-23 11:33N 34°37' E 135°22'0 0.0
2016-Aug-23 10:33N 34°37' E 135°22'8 8.2
2016-Aug-23 09:33N 34°35' E 135°13'1413.5
2016-Aug-23 08:32N 34°36' E 134°56'  
Track history (hours):
 
Tides and Currents Weather Stations Pressure Air Temp Water Temp Dewpoint Dewpoint Depression Visibility Wind Speed Wind Dir Waves Ship Positions

Tenjinmaru No11

Last reported at 2016-Aug-24 16:16 UTC. Time now 2016-Aug-29 00:13 UTC.
Position N 34°37' E 134°57'.

Length 75 m; draft 4.8 m.

Type: Cargo ship. MMSI: 431003485.

Date/timePositionNaut miles runAvg speedWind from/ knotsBaromVisibWave heightAir tempDewpointWater temp
2016-Aug-24 16:16N 34°37' E 134°57'912.5
2016-Aug-24 15:33N 34°35' E 135°08'1211.7
2016-Aug-24 14:33N 34°37' E 135°22'4 0.8
2016-Aug-24 09:16N 34°38' E 135°27'0 0.0
2016-Aug-24 08:28N 34°38' E 135°27'0 0.0
2016-Aug-24 07:28N 34°38' E 135°27'0 0.0
2016-Aug-24 06:16N 34°38' E 135°27'0 0.0
2016-Aug-24 04:29N 34°38' E 135°27'2 0.3
2016-Aug-23 23:33N 34°39' E 135°28'1 1.5
2016-Aug-23 22:33N 34°39' E 135°26'3 3.1
2016-Aug-23 21:28N 34°37' E 135°22'0 0.0
2016-Aug-23 20:34N 34°37' E 135°22'0 0.0
2016-Aug-23 19:28N 34°37' E 135°22'0 0.0
2016-Aug-23 18:28N 34°37' E 135°22'0 0.0
2016-Aug-23 17:34N 34°37' E 135°22'0 0.0
2016-Aug-23 16:34N 34°37' E 135°22'0 0.0
2016-Aug-23 15:34N 34°37' E 135°22'0 0.0
2016-Aug-23 14:21N 34°37' E 135°22'0 0.0
2016-Aug-23 13:21N 34°37' E 135°22'0 0.0
2016-Aug-23 12:34N 34°37' E 135°22'0 0.0
2016-Aug-23 11:33N 34°37' E 135°22'0 0.0
2016-Aug-23 10:33N 34°37' E 135°22'8 8.2
2016-Aug-23 09:33N 34°35' E 135°13'1413.5
2016-Aug-23 08:32N 34°36' E 134°56'  

Dump ship's entire track history